sensor_id;sensor_type;location;lat;lon;timestamp;temperature;humidity
68433;DHT22;55412;51.350;17.056;2023-09-30T00:02:17;20.70;63.30
68433;DHT22;55412;51.350;17.056;2023-09-30T00:04:44;20.60;63.60
68433;DHT22;55412;51.350;17.056;2023-09-30T00:07:10;20.70;63.00
68433;DHT22;55412;51.350;17.056;2023-09-30T00:09:36;20.80;62.30
68433;DHT22;55412;51.350;17.056;2023-09-30T00:12:03;20.80;62.50
68433;DHT22;55412;51.350;17.056;2023-09-30T00:14:29;20.90;62.80
68433;DHT22;55412;51.350;17.056;2023-09-30T00:16:56;20.90;62.80
68433;DHT22;55412;51.350;17.056;2023-09-30T00:19:22;20.90;63.00
68433;DHT22;55412;51.350;17.056;2023-09-30T00:21:49;20.90;63.30
68433;DHT22;55412;51.350;17.056;2023-09-30T00:24:15;20.90;63.40
68433;DHT22;55412;51.350;17.056;2023-09-30T00:26:41;20.90;63.60
68433;DHT22;55412;51.350;17.056;2023-09-30T00:29:07;20.90;63.70
68433;DHT22;55412;51.350;17.056;2023-09-30T00:31:33;20.90;64.00
68433;DHT22;55412;51.350;17.056;2023-09-30T00:33:59;20.90;64.10
68433;DHT22;55412;51.350;17.056;2023-09-30T00:36:26;20.90;64.80
68433;DHT22;55412;51.350;17.056;2023-09-30T00:38:52;20.80;64.70
68433;DHT22;55412;51.350;17.056;2023-09-30T00:41:18;20.80;64.60
68433;DHT22;55412;51.350;17.056;2023-09-30T00:43:46;20.80;64.90
68433;DHT22;55412;51.350;17.056;2023-09-30T00:46:28;20.80;65.10
68433;DHT22;55412;51.350;17.056;2023-09-30T00:48:58;20.90;65.00
68433;DHT22;55412;51.350;17.056;2023-09-30T00:51:29;20.80;65.30
68433;DHT22;55412;51.350;17.056;2023-09-30T00:53:58;20.80;65.40
68433;DHT22;55412;51.350;17.056;2023-09-30T00:56:27;20.80;66.00
68433;DHT22;55412;51.350;17.056;2023-09-30T00:58:54;20.80;65.50
68433;DHT22;55412;51.350;17.056;2023-09-30T01:01:21;20.80;65.50
68433;DHT22;55412;51.350;17.056;2023-09-30T01:03:48;20.90;65.60
68433;DHT22;55412;51.350;17.056;2023-09-30T01:06:14;20.90;65.90
68433;DHT22;55412;51.350;17.056;2023-09-30T01:08:41;20.90;66.00
68433;DHT22;55412;51.350;17.056;2023-09-30T01:11:07;20.90;66.20
68433;DHT22;55412;51.350;17.056;2023-09-30T01:13:35;20.90;66.80
68433;DHT22;55412;51.350;17.056;2023-09-30T01:16:09;20.80;70.20
68433;DHT22;55412;51.350;17.056;2023-09-30T01:18:36;20.40;72.70
68433;DHT22;55412;51.350;17.056;2023-09-30T01:21:04;20.20;73.90
68433;DHT22;55412;51.350;17.056;2023-09-30T01:23:32;20.00;76.30
68433;DHT22;55412;51.350;17.056;2023-09-30T01:26:06;19.90;77.30
68433;DHT22;55412;51.350;17.056;2023-09-30T01:28:38;19.80;78.80
68433;DHT22;55412;51.350;17.056;2023-09-30T01:31:05;19.60;80.50
68433;DHT22;55412;51.350;17.056;2023-09-30T01:33:32;19.60;80.00
68433;DHT22;55412;51.350;17.056;2023-09-30T01:35:59;19.70;77.60
68433;DHT22;55412;51.350;17.056;2023-09-30T01:38:26;19.80;76.60
68433;DHT22;55412;51.350;17.056;2023-09-30T01:40:52;19.90;75.60
68433;DHT22;55412;51.350;17.056;2023-09-30T01:43:19;19.90;75.00
68433;DHT22;55412;51.350;17.056;2023-09-30T01:45:46;19.90;76.70
68433;DHT22;55412;51.350;17.056;2023-09-30T01:48:12;19.80;76.10
68433;DHT22;55412;51.350;17.056;2023-09-30T01:50:38;19.80;76.30
68433;DHT22;55412;51.350;17.056;2023-09-30T01:53:06;19.80;76.20
68433;DHT22;55412;51.350;17.056;2023-09-30T01:55:38;19.90;75.30
68433;DHT22;55412;51.350;17.056;2023-09-30T01:58:05;20.00;74.50
68433;DHT22;55412;51.350;17.056;2023-09-30T02:00:31;19.90;74.80
68433;DHT22;55412;51.350;17.056;2023-09-30T02:02:57;20.00;73.40
68433;DHT22;55412;51.350;17.056;2023-09-30T02:05:24;20.00;74.00
68433;DHT22;55412;51.350;17.056;2023-09-30T02:07:52;20.00;73.90
68433;DHT22;55412;51.350;17.056;2023-09-30T02:10:19;19.90;74.50
68433;DHT22;55412;51.350;17.056;2023-09-30T02:12:46;19.90;74.70
68433;DHT22;55412;51.350;17.056;2023-09-30T02:15:13;19.90;74.20
68433;DHT22;55412;51.350;17.056;2023-09-30T02:17:40;19.80;75.30
68433;DHT22;55412;51.350;17.056;2023-09-30T02:20:11;19.80;74.90
68433;DHT22;55412;51.350;17.056;2023-09-30T02:22:45;19.70;75.80
68433;DHT22;55412;51.350;17.056;2023-09-30T02:25:12;19.70;76.00
68433;DHT22;55412;51.350;17.056;2023-09-30T02:27:41;19.60;76.60
68433;DHT22;55412;51.350;17.056;2023-09-30T02:30:09;19.70;75.90
68433;DHT22;55412;51.350;17.056;2023-09-30T02:32:40;19.70;75.10
68433;DHT22;55412;51.350;17.056;2023-09-30T02:35:07;19.80;74.80
68433;DHT22;55412;51.350;17.056;2023-09-30T02:37:34;19.80;74.80
68433;DHT22;55412;51.350;17.056;2023-09-30T02:40:04;19.80;74.80
68433;DHT22;55412;51.350;17.056;2023-09-30T02:42:36;19.80;75.00
68433;DHT22;55412;51.350;17.056;2023-09-30T02:45:06;19.70;75.30
68433;DHT22;55412;51.350;17.056;2023-09-30T02:47:37;19.70;75.40
68433;DHT22;55412;51.350;17.056;2023-09-30T02:50:08;19.60;76.00
68433;DHT22;55412;51.350;17.056;2023-09-30T02:52:38;19.50;76.30
68433;DHT22;55412;51.350;17.056;2023-09-30T02:55:11;19.40;76.80
68433;DHT22;55412;51.350;17.056;2023-09-30T02:57:38;19.30;77.30
68433;DHT22;55412;51.350;17.056;2023-09-30T03:00:05;19.20;77.70
68433;DHT22;55412;51.350;17.056;2023-09-30T03:02:46;19.10;78.40
68433;DHT22;55412;51.350;17.056;2023-09-30T03:05:12;19.10;78.30
68433;DHT22;55412;51.350;17.056;2023-09-30T03:07:39;19.00;78.60
68433;DHT22;55412;51.350;17.056;2023-09-30T03:10:07;19.00;79.10
68433;DHT22;55412;51.350;17.056;2023-09-30T03:12:35;18.90;79.50
68433;DHT22;55412;51.350;17.056;2023-09-30T03:15:01;18.80;80.00
68433;DHT22;55412;51.350;17.056;2023-09-30T03:17:33;18.80;80.30
68433;DHT22;55412;51.350;17.056;2023-09-30T03:20:00;18.80;80.40
68433;DHT22;55412;51.350;17.056;2023-09-30T03:22:27;18.70;81.00
68433;DHT22;55412;51.350;17.056;2023-09-30T03:24:54;18.70;81.20
68433;DHT22;55412;51.350;17.056;2023-09-30T03:27:23;18.60;81.50
68433;DHT22;55412;51.350;17.056;2023-09-30T03:29:49;18.60;81.70
68433;DHT22;55412;51.350;17.056;2023-09-30T03:32:15;18.60;82.00
68433;DHT22;55412;51.350;17.056;2023-09-30T03:34:41;18.70;81.70
68433;DHT22;55412;51.350;17.056;2023-09-30T03:37:10;18.70;81.70
68433;DHT22;55412;51.350;17.056;2023-09-30T03:39:37;18.70;81.60
68433;DHT22;55412;51.350;17.056;2023-09-30T03:42:03;18.70;81.90
68433;DHT22;55412;51.350;17.056;2023-09-30T03:44:30;18.70;82.30
68433;DHT22;55412;51.350;17.056;2023-09-30T03:46:57;18.60;82.40
68433;DHT22;55412;51.350;17.056;2023-09-30T03:49:24;18.60;82.70
68433;DHT22;55412;51.350;17.056;2023-09-30T03:51:51;18.60;83.10
68433;DHT22;55412;51.350;17.056;2023-09-30T03:54:19;18.50;83.30
68433;DHT22;55412;51.350;17.056;2023-09-30T03:56:47;18.40;83.80
68433;DHT22;55412;51.350;17.056;2023-09-30T03:59:15;18.40;83.80
68433;DHT22;55412;51.350;17.056;2023-09-30T04:01:41;18.40;83.80
68433;DHT22;55412;51.350;17.056;2023-09-30T04:04:08;18.30;84.20
68433;DHT22;55412;51.350;17.056;2023-09-30T04:06:36;18.10;85.00
68433;DHT22;55412;51.350;17.056;2023-09-30T04:09:05;18.00;85.50
68433;DHT22;55412;51.350;17.056;2023-09-30T04:11:38;18.00;85.50
68433;DHT22;55412;51.350;17.056;2023-09-30T04:14:06;18.10;85.50
68433;DHT22;55412;51.350;17.056;2023-09-30T04:16:33;18.00;85.70
68433;DHT22;55412;51.350;17.056;2023-09-30T04:19:00;18.00;86.00
68433;DHT22;55412;51.350;17.056;2023-09-30T04:21:26;17.90;86.40
68433;DHT22;55412;51.350;17.056;2023-09-30T04:23:55;17.80;87.20
68433;DHT22;55412;51.350;17.056;2023-09-30T04:26:23;17.70;88.30
68433;DHT22;55412;51.350;17.056;2023-09-30T04:28:51;17.70;88.40
68433;DHT22;55412;51.350;17.056;2023-09-30T04:31:17;17.80;88.30
68433;DHT22;55412;51.350;17.056;2023-09-30T04:33:44;17.90;87.80
68433;DHT22;55412;51.350;17.056;2023-09-30T04:36:10;18.00;87.60
68433;DHT22;55412;51.350;17.056;2023-09-30T04:38:36;18.10;87.40
68433;DHT22;55412;51.350;17.056;2023-09-30T04:41:05;18.10;87.10
68433;DHT22;55412;51.350;17.056;2023-09-30T04:43:33;18.10;87.30
68433;DHT22;55412;51.350;17.056;2023-09-30T04:46:00;18.10;87.60
68433;DHT22;55412;51.350;17.056;2023-09-30T04:48:26;18.10;87.50
68433;DHT22;55412;51.350;17.056;2023-09-30T04:50:54;18.10;87.30
68433;DHT22;55412;51.350;17.056;2023-09-30T04:53:21;18.10;87.60
68433;DHT22;55412;51.350;17.056;2023-09-30T04:55:49;18.20;87.50
68433;DHT22;55412;51.350;17.056;2023-09-30T04:58:16;18.20;87.70
68433;DHT22;55412;51.350;17.056;2023-09-30T05:00:43;18.10;87.70
68433;DHT22;55412;51.350;17.056;2023-09-30T05:03:09;18.10;88.10
68433;DHT22;55412;51.350;17.056;2023-09-30T05:05:35;18.00;88.40
68433;DHT22;55412;51.350;17.056;2023-09-30T05:08:02;17.90;89.00
68433;DHT22;55412;51.350;17.056;2023-09-30T05:10:29;18.00;88.90
68433;DHT22;55412;51.350;17.056;2023-09-30T05:12:55;18.10;89.30
68433;DHT22;55412;51.350;17.056;2023-09-30T05:15:23;18.10;88.90
68433;DHT22;55412;51.350;17.056;2023-09-30T05:17:49;18.10;88.90
68433;DHT22;55412;51.350;17.056;2023-09-30T05:20:16;18.10;88.90
68433;DHT22;55412;51.350;17.056;2023-09-30T05:22:45;18.10;89.10
68433;DHT22;55412;51.350;17.056;2023-09-30T05:25:15;18.10;89.40
68433;DHT22;55412;51.350;17.056;2023-09-30T05:27:43;18.10;89.50
68433;DHT22;55412;51.350;17.056;2023-09-30T05:30:13;18.10;89.60
68433;DHT22;55412;51.350;17.056;2023-09-30T05:32:41;18.00;89.90
68433;DHT22;55412;51.350;17.056;2023-09-30T05:35:08;18.00;90.20
68433;DHT22;55412;51.350;17.056;2023-09-30T05:37:43;18.00;90.60
68433;DHT22;55412;51.350;17.056;2023-09-30T05:40:11;18.00;90.80
68433;DHT22;55412;51.350;17.056;2023-09-30T05:42:48;17.90;91.30
68433;DHT22;55412;51.350;17.056;2023-09-30T05:45:15;17.90;91.40
68433;DHT22;55412;51.350;17.056;2023-09-30T05:47:42;17.90;91.60
68433;DHT22;55412;51.350;17.056;2023-09-30T05:50:09;17.90;91.80
68433;DHT22;55412;51.350;17.056;2023-09-30T05:52:40;17.90;92.10
68433;DHT22;55412;51.350;17.056;2023-09-30T05:55:07;17.90;92.10
68433;DHT22;55412;51.350;17.056;2023-09-30T05:57:33;17.80;91.50
68433;DHT22;55412;51.350;17.056;2023-09-30T06:00:01;17.50;88.90
68433;DHT22;55412;51.350;17.056;2023-09-30T06:02:49;17.40;87.30
68433;DHT22;55412;51.350;17.056;2023-09-30T06:05:17;17.20;85.00
68433;DHT22;55412;51.350;17.056;2023-09-30T06:07:52;17.10;84.80
68433;DHT22;55412;51.350;17.056;2023-09-30T06:10:19;17.10;85.30
68433;DHT22;55412;51.350;17.056;2023-09-30T06:12:51;17.00;84.10
68433;DHT22;55412;51.350;17.056;2023-09-30T06:15:22;16.80;83.80
68433;DHT22;55412;51.350;17.056;2023-09-30T06:17:55;16.80;84.10
68433;DHT22;55412;51.350;17.056;2023-09-30T06:20:22;16.70;83.40
68433;DHT22;55412;51.350;17.056;2023-09-30T06:22:51;16.60;83.70
68433;DHT22;55412;51.350;17.056;2023-09-30T06:25:21;16.60;83.70
68433;DHT22;55412;51.350;17.056;2023-09-30T06:27:49;16.50;84.00
68433;DHT22;55412;51.350;17.056;2023-09-30T06:30:22;16.50;84.40
68433;DHT22;55412;51.350;17.056;2023-09-30T06:33:02;16.40;84.60
68433;DHT22;55412;51.350;17.056;2023-09-30T06:35:30;16.40;85.20
68433;DHT22;55412;51.350;17.056;2023-09-30T06:38:02;16.40;85.40
68433;DHT22;55412;51.350;17.056;2023-09-30T06:40:29;16.40;84.90
68433;DHT22;55412;51.350;17.056;2023-09-30T06:42:55;16.40;84.90
68433;DHT22;55412;51.350;17.056;2023-09-30T06:45:21;16.40;84.40
68433;DHT22;55412;51.350;17.056;2023-09-30T06:47:47;16.40;84.40
68433;DHT22;55412;51.350;17.056;2023-09-30T06:50:14;16.40;84.30
68433;DHT22;55412;51.350;17.056;2023-09-30T06:52:43;16.40;84.10
68433;DHT22;55412;51.350;17.056;2023-09-30T06:55:15;16.60;85.10
68433;DHT22;55412;51.350;17.056;2023-09-30T06:57:42;16.70;82.00
68433;DHT22;55412;51.350;17.056;2023-09-30T07:00:13;16.50;83.60
68433;DHT22;55412;51.350;17.056;2023-09-30T07:02:40;16.40;83.40
68433;DHT22;55412;51.350;17.056;2023-09-30T07:05:14;16.40;83.60
68433;DHT22;55412;51.350;17.056;2023-09-30T07:07:41;16.40;83.30
68433;DHT22;55412;51.350;17.056;2023-09-30T07:10:11;16.40;82.50
68433;DHT22;55412;51.350;17.056;2023-09-30T07:12:37;16.40;82.50
68433;DHT22;55412;51.350;17.056;2023-09-30T07:15:06;16.40;82.10
68433;DHT22;55412;51.350;17.056;2023-09-30T07:17:34;17.60;77.40
68433;DHT22;55412;51.350;17.056;2023-09-30T07:20:01;17.00;79.00
68433;DHT22;55412;51.350;17.056;2023-09-30T07:22:28;16.80;79.60
68433;DHT22;55412;51.350;17.056;2023-09-30T07:24:54;16.80;80.00
68433;DHT22;55412;51.350;17.056;2023-09-30T07:27:21;16.80;79.80
68433;DHT22;55412;51.350;17.056;2023-09-30T07:29:47;16.70;79.60
68433;DHT22;55412;51.350;17.056;2023-09-30T07:32:13;16.60;80.40
68433;DHT22;55412;51.350;17.056;2023-09-30T07:34:40;16.60;80.50
68433;DHT22;55412;51.350;17.056;2023-09-30T07:37:06;16.50;80.80
68433;DHT22;55412;51.350;17.056;2023-09-30T07:39:32;16.50;81.10
68433;DHT22;55412;51.350;17.056;2023-09-30T07:41:58;16.40;80.90
68433;DHT22;55412;51.350;17.056;2023-09-30T07:44:24;16.40;80.90
68433;DHT22;55412;51.350;17.056;2023-09-30T07:46:51;16.50;80.70
68433;DHT22;55412;51.350;17.056;2023-09-30T07:49:17;16.50;80.90
68433;DHT22;55412;51.350;17.056;2023-09-30T07:51:44;16.50;79.90
68433;DHT22;55412;51.350;17.056;2023-09-30T07:54:12;16.50;79.70
68433;DHT22;55412;51.350;17.056;2023-09-30T07:56:38;16.50;80.00
68433;DHT22;55412;51.350;17.056;2023-09-30T07:59:04;16.50;80.20
68433;DHT22;55412;51.350;17.056;2023-09-30T08:01:31;16.60;79.60
68433;DHT22;55412;51.350;17.056;2023-09-30T08:03:57;16.70;79.30
68433;DHT22;55412;51.350;17.056;2023-09-30T08:06:23;16.80;79.50
68433;DHT22;55412;51.350;17.056;2023-09-30T08:08:50;16.80;78.40
68433;DHT22;55412;51.350;17.056;2023-09-30T08:11:18;16.70;78.00
68433;DHT22;55412;51.350;17.056;2023-09-30T08:13:46;16.50;76.70
68433;DHT22;55412;51.350;17.056;2023-09-30T08:16:13;16.40;77.00
68433;DHT22;55412;51.350;17.056;2023-09-30T08:18:39;16.50;76.30
68433;DHT22;55412;51.350;17.056;2023-09-30T08:21:09;16.70;75.50
68433;DHT22;55412;51.350;17.056;2023-09-30T08:23:38;16.50;75.70
68433;DHT22;55412;51.350;17.056;2023-09-30T08:26:07;16.40;74.80
68433;DHT22;55412;51.350;17.056;2023-09-30T08:28:34;16.20;73.30
68433;DHT22;55412;51.350;17.056;2023-09-30T08:31:05;16.30;72.60
68433;DHT22;55412;51.350;17.056;2023-09-30T08:33:32;16.40;71.00
68433;DHT22;55412;51.350;17.056;2023-09-30T08:36:04;16.50;71.60
68433;DHT22;55412;51.350;17.056;2023-09-30T08:38:39;16.70;71.10
68433;DHT22;55412;51.350;17.056;2023-09-30T08:41:06;16.70;69.50
68433;DHT22;55412;51.350;17.056;2023-09-30T08:43:39;16.60;70.30
68433;DHT22;55412;51.350;17.056;2023-09-30T08:46:07;16.80;69.30
68433;DHT22;55412;51.350;17.056;2023-09-30T08:48:34;16.70;70.00
68433;DHT22;55412;51.350;17.056;2023-09-30T08:51:01;16.70;69.10
68433;DHT22;55412;51.350;17.056;2023-09-30T08:53:31;16.70;68.20
68433;DHT22;55412;51.350;17.056;2023-09-30T08:55:58;16.70;68.50
68433;DHT22;55412;51.350;17.056;2023-09-30T08:58:29;16.80;67.70
68433;DHT22;55412;51.350;17.056;2023-09-30T09:00:57;16.80;67.80
68433;DHT22;55412;51.350;17.056;2023-09-30T09:03:24;16.90;66.00
68433;DHT22;55412;51.350;17.056;2023-09-30T09:05:55;17.10;66.40
68433;DHT22;55412;51.350;17.056;2023-09-30T09:08:26;17.00;65.70
68433;DHT22;55412;51.350;17.056;2023-09-30T09:11:00;16.90;64.80
68433;DHT22;55412;51.350;17.056;2023-09-30T09:13:28;17.10;64.30
68433;DHT22;55412;51.350;17.056;2023-09-30T09:16:11;17.20;65.30
68433;DHT22;55412;51.350;17.056;2023-09-30T09:18:37;17.10;65.20
68433;DHT22;55412;51.350;17.056;2023-09-30T09:21:11;17.00;65.10
68433;DHT22;55412;51.350;17.056;2023-09-30T09:23:45;17.00;65.50
68433;DHT22;55412;51.350;17.056;2023-09-30T09:26:32;17.30;64.10
68433;DHT22;55412;51.350;17.056;2023-09-30T09:29:03;17.30;63.60
68433;DHT22;55412;51.350;17.056;2023-09-30T09:31:34;17.30;63.60
68433;DHT22;55412;51.350;17.056;2023-09-30T09:34:03;17.40;63.80
68433;DHT22;55412;51.350;17.056;2023-09-30T09:36:55;17.40;63.50
68433;DHT22;55412;51.350;17.056;2023-09-30T09:39:29;17.40;64.00
68433;DHT22;55412;51.350;17.056;2023-09-30T09:41:58;17.50;64.60
68433;DHT22;55412;51.350;17.056;2023-09-30T09:44:27;17.60;65.00
68433;DHT22;55412;51.350;17.056;2023-09-30T09:46:53;17.80;63.50
68433;DHT22;55412;51.350;17.056;2023-09-30T09:49:20;17.40;62.10
68433;DHT22;55412;51.350;17.056;2023-09-30T09:51:48;17.30;63.20
68433;DHT22;55412;51.350;17.056;2023-09-30T09:54:16;17.30;63.80
68433;DHT22;55412;51.350;17.056;2023-09-30T09:56:45;17.00;63.30
68433;DHT22;55412;51.350;17.056;2023-09-30T09:59:12;16.90;64.30
68433;DHT22;55412;51.350;17.056;2023-09-30T10:01:42;17.10;63.30
68433;DHT22;55412;51.350;17.056;2023-09-30T10:04:11;16.90;63.40
68433;DHT22;55412;51.350;17.056;2023-09-30T10:06:40;17.20;62.70
68433;DHT22;55412;51.350;17.056;2023-09-30T10:09:10;17.40;62.40
68433;DHT22;55412;51.350;17.056;2023-09-30T10:11:41;17.30;62.50
68433;DHT22;55412;51.350;17.056;2023-09-30T10:14:07;17.70;61.80
68433;DHT22;55412;51.350;17.056;2023-09-30T10:19:19;17.70;61.60
68433;DHT22;55412;51.350;17.056;2023-09-30T10:24:52;17.50;61.90
68433;DHT22;55412;51.350;17.056;2023-09-30T10:29:58;17.60;61.70
68433;DHT22;55412;51.350;17.056;2023-09-30T10:40:49;17.70;58.10
68433;DHT22;55412;51.350;17.056;2023-09-30T10:43:30;17.80;58.40
68433;DHT22;55412;51.350;17.056;2023-09-30T10:45:57;17.90;58.20
68433;DHT22;55412;51.350;17.056;2023-09-30T10:51:21;17.70;60.30
68433;DHT22;55412;51.350;17.056;2023-09-30T10:56:18;17.80;58.00
68433;DHT22;55412;51.350;17.056;2023-09-30T10:58:50;17.80;58.10
68433;DHT22;55412;51.350;17.056;2023-09-30T11:01:21;17.60;59.30
68433;DHT22;55412;51.350;17.056;2023-09-30T11:03:50;17.50;59.80
68433;DHT22;55412;51.350;17.056;2023-09-30T11:06:22;17.40;60.00
68433;DHT22;55412;51.350;17.056;2023-09-30T11:09:00;17.30;60.90
68433;DHT22;55412;51.350;17.056;2023-09-30T11:14:04;17.50;60.90
68433;DHT22;55412;51.350;17.056;2023-09-30T11:16:48;17.40;60.80
68433;DHT22;55412;51.350;17.056;2023-09-30T11:19:16;17.30;61.70
68433;DHT22;55412;51.350;17.056;2023-09-30T11:21:42;17.30;62.80
68433;DHT22;55412;51.350;17.056;2023-09-30T11:24:10;17.50;63.50
68433;DHT22;55412;51.350;17.056;2023-09-30T11:26:37;17.60;63.10
68433;DHT22;55412;51.350;17.056;2023-09-30T11:29:07;17.50;62.10
68433;DHT22;55412;51.350;17.056;2023-09-30T11:31:41;17.70;62.40
68433;DHT22;55412;51.350;17.056;2023-09-30T11:34:10;18.00;61.60
68433;DHT22;55412;51.350;17.056;2023-09-30T11:36:38;18.00;61.80
68433;DHT22;55412;51.350;17.056;2023-09-30T11:39:08;17.80;61.60
